Time;durP1;ratioP1;P1;durP2;ratioP2;P2;SDS_P1;SDS_P2;PMS_P1;PMS_P2;Temp;Humidity;BMP_temperature;BMP_pressure;BME280_temperature;BME280_humidity;BME280_pressure;Samples;Min_cycle;Max_cycle;Signal;HPM_P1;HPM_P2
2021/11/20 00:01:37;;;;;;;0.52;0.52;;;;;;;;;;4828878;29;32221;-69
2021/11/20 00:04:05;;;;;;;0.32;0.32;;;;;;;;;;4828978;29;32470;-69
2021/11/20 00:06:33;;;;;;;;;;;;;;;;;;4828584;29;34274;-71
2021/11/20 00:09:01;;;;;;;0.43;0.43;;;;;;;;;;4828353;29;32241;-68
2021/11/20 00:11:32;;;;;;;0.50;0.50;;;;;;;;;;4828865;29;32341;-66
2021/11/20 00:13:59;;;;;;;0.65;0.65;;;;;;;;;;4828895;29;32372;-67
2021/11/20 00:16:26;;;;;;;0.65;0.65;;;;;;;;;;4828736;29;34504;-67
2021/11/20 00:18:53;;;;;;;0.60;0.60;;;;;;;;;;4828650;29;32349;-69
2021/11/20 00:21:27;;;;;;;;;;;;;;;;;;4827877;29;32430;-67
2021/11/20 00:24:00;;;;;;;0.55;0.55;;;;;;;;;;4827318;29;34313;-66
2021/11/20 00:26:33;;;;;;;0.80;0.73;;;;;;;;;;4827692;29;32195;-67
2021/11/20 00:29:18;;;;;;;0.85;0.85;;;;;;;;;;4828869;29;34554;-67
2021/11/20 00:31:50;;;;;;;0.70;0.60;;;;;;;;;;4810043;29;35275;-67
2021/11/20 00:34:21;;;;;;;0.85;0.77;;;;;;;;;;4810948;29;32265;-67
2021/11/20 00:36:49;;;;;;;0.77;0.77;;;;;;;;;;4812954;29;32228;-67
2021/11/20 00:39:19;;;;;;;1.23;0.85;;;;;;;;;;4812574;29;34589;-67
2021/11/20 00:41:47;;;;;;;0.77;0.57;;;;;;;;;;4805902;29;32392;-70
2021/11/20 00:44:14;;;;;;;0.85;0.63;;;;;;;;;;4812567;29;32349;-69
2021/11/20 00:46:42;;;;;;;0.77;0.77;;;;;;;;;;4812805;29;32302;-68
2021/11/20 00:49:08;;;;;;;;;;;;;;;;;;4829834;29;32148;-67
2021/11/20 00:51:36;;;;;;;0.77;0.77;;;;;;;;;;4831291;29;35068;-67
2021/11/20 00:54:03;;;;;;;0.63;0.63;;;;;;;;;;4830288;29;32195;-68
2021/11/20 00:56:30;;;;;;;1.05;0.63;;;;;;;;;;4830725;29;32290;-68
2021/11/20 00:58:58;;;;;;;0.60;0.60;;;;;;;;;;4831365;29;32324;-68
2021/11/20 01:01:29;;;;;;;0.45;0.45;;;;;;;;;;4830280;29;35570;-69
2021/11/20 01:03:57;;;;;;;0.45;0.45;;;;;;;;;;4830090;29;32280;-69
2021/11/20 01:06:23;;;;;;;;;;;;;;;;;;4831273;29;32273;-70
2021/11/20 01:08:52;;;;;;;0.70;0.70;;;;;;;;;;4830848;29;32457;-68
2021/11/20 01:11:23;;;;;;;0.70;0.55;;;;;;;;;;4830045;29;32341;-70
2021/11/20 01:13:51;;;;;;;1.73;1.63;;;;;;;;;;4829220;29;34083;-67
2021/11/20 01:16:20;;;;;;;0.57;0.57;;;;;;;;;;4830501;29;32683;-70
2021/11/20 01:18:47;;;;;;;0.40;0.40;;;;;;;;;;4811871;29;32298;-68
2021/11/20 01:21:14;;;;;;;0.73;0.73;;;;;;;;;;4822121;29;32011;-71
2021/11/20 01:23:43;;;;;;;0.52;0.52;;;;;;;;;;4828291;29;34216;-67
2021/11/20 01:26:10;;;;;;;0.45;0.45;;;;;;;;;;4830688;29;32240;-66
2021/11/20 01:28:40;;;;;;;0.70;0.60;;;;;;;;;;4831230;29;32208;-68
2021/11/20 01:31:11;;;;;;;0.85;0.85;;;;;;;;;;4830928;29;32247;-71
2021/11/20 01:33:41;;;;;;;1.10;0.57;;;;;;;;;;4835753;29;32293;-67
2021/11/20 01:36:10;;;;;;;0.45;0.43;;;;;;;;;;4840626;29;35490;-72
2021/11/20 01:38:37;;;;;;;0.45;0.45;;;;;;;;;;4836449;29;32234;-68
2021/11/20 01:41:05;;;;;;;0.75;0.73;;;;;;;;;;4830731;29;32692;-69
2021/11/20 01:43:32;;;;;;;1.13;1.13;;;;;;;;;;4830624;29;32226;-68
2021/11/20 01:46:02;;;;;;;0.30;0.30;;;;;;;;;;4830106;29;35359;-70
2021/11/20 01:48:56;;;;;;;0.73;0.73;;;;;;;;;;4830401;29;32280;-68
2021/11/20 01:51:29;;;;;;;0.63;0.63;;;;;;;;;;4830489;29;32108;-68
2021/11/20 01:54:09;;;;;;;0.77;0.75;;;;;;;;;;4832469;29;32179;-68
2021/11/20 01:56:43;;;;;;;0.80;0.80;;;;;;;;;;4840126;29;32324;-68
2021/11/20 01:59:18;;;;;;;0.73;0.73;;;;;;;;;;4830690;29;35463;-68
2021/11/20 02:01:49;;;;;;;0.52;0.52;;;;;;;;;;4830394;29;32255;-70
2021/11/20 02:04:34;;;;;;;0.88;0.88;;;;;;;;;;4830363;29;32225;-67
2021/11/20 02:07:10;;;;;;;0.98;0.88;;;;;;;;;;4830474;29;32343;-67
2021/11/20 02:09:52;;;;;;;0.75;0.75;;;;;;;;;;4829181;29;34213;-69
2021/11/20 02:12:22;;;;;;;1.05;0.98;;;;;;;;;;4829506;29;32323;-68
2021/11/20 02:14:50;;;;;;;0.85;0.82;;;;;;;;;;4829361;29;32619;-67
2021/11/20 02:17:20;;;;;;;0.93;0.75;;;;;;;;;;4829968;29;32168;-71
2021/11/20 02:20:04;;;;;;;0.85;0.75;;;;;;;;;;4830267;29;32134;-68
2021/11/20 02:22:35;;;;;;;0.73;0.73;;;;;;;;;;4830165;29;35603;-72
2021/11/20 02:25:01;;;;;;;1.45;1.35;;;;;;;;;;4830573;29;32273;-68
2021/11/20 02:27:32;;;;;;;0.50;0.50;;;;;;;;;;4829046;29;32068;-68
2021/11/20 02:30:18;;;;;;;1.35;1.25;;;;;;;;;;4830265;29;32200;-71
2021/11/20 02:32:47;;;;;;;1.75;1.13;;;;;;;;;;4827480;29;35349;-67
2021/11/20 02:35:18;;;;;;;1.13;0.93;;;;;;;;;;4830353;29;32492;-68
2021/11/20 02:37:46;;;;;;;1.60;1.15;;;;;;;;;;4829099;29;32203;-68
2021/11/20 02:40:15;;;;;;;1.33;1.23;;;;;;;;;;4830210;29;32491;-71
2021/11/20 02:42:43;;;;;;;1.35;1.25;;;;;;;;;;4830699;29;32246;-69
2021/11/20 02:45:21;;;;;;;1.65;1.55;;;;;;;;;;4829591;29;34746;-69
2021/11/20 02:47:48;;;;;;;1.45;1.35;;;;;;;;;;4828843;29;32262;-72
2021/11/20 02:50:16;;;;;;;1.88;1.02;;;;;;;;;;4830021;29;32344;-68
2021/11/20 02:52:43;;;;;;;1.45;1.35;;;;;;;;;;4829054;29;32499;-71
2021/11/20 02:55:10;;;;;;;1.13;1.02;;;;;;;;;;4829529;29;34288;-68
2021/11/20 02:57:40;;;;;;;1.48;1.38;;;;;;;;;;4830012;29;32662;-68
2021/11/20 03:00:11;;;;;;;1.33;1.05;;;;;;;;;;4829681;29;32177;-68
2021/11/20 03:02:39;;;;;;;2.25;1.17;;;;;;;;;;4811353;29;32305;-68
2021/11/20 03:05:08;;;;;;;1.52;1.42;;;;;;;;;;4811684;29;32297;-71
2021/11/20 03:07:34;;;;;;;1.48;1.35;;;;;;;;;;4811488;29;34432;-68
2021/11/20 03:10:01;;;;;;;1.52;1.42;;;;;;;;;;4811457;29;32203;-72
2021/11/20 03:12:27;;;;;;;1.65;1.50;;;;;;;;;;4811652;29;32354;-69
2021/11/20 03:14:54;;;;;;;1.65;1.50;;;;;;;;;;4818501;29;32512;-69
2021/11/20 03:17:21;;;;;;;1.67;1.58;;;;;;;;;;4829610;29;34421;-70
2021/11/20 03:19:51;;;;;;;1.63;1.25;;;;;;;;;;4829357;29;32361;-68
2021/11/20 03:22:21;;;;;;;1.42;1.25;;;;;;;;;;4829386;29;32147;-67
2021/11/20 03:24:48;;;;;;;2.20;1.20;;;;;;;;;;4828854;29;32373;-68
2021/11/20 03:27:15;;;;;;;2.33;1.85;;;;;;;;;;4829775;29;32234;-68
2021/11/20 03:29:42;;;;;;;1.58;1.33;;;;;;;;;;4827310;29;35188;-68
2021/11/20 03:32:10;;;;;;;1.90;1.33;;;;;;;;;;4829302;29;32229;-68
2021/11/20 03:34:39;;;;;;;3.90;1.58;;;;;;;;;;4828768;29;32260;-67
2021/11/20 03:37:07;;;;;;;1.90;1.58;;;;;;;;;;4829704;29;32272;-68
2021/11/20 03:39:34;;;;;;;2.33;1.70;;;;;;;;;;4829675;29;34458;-72
2021/11/20 03:42:01;;;;;;;;;;;;;;;;;;4829488;29;32164;-70
2021/11/20 03:44:28;;;;;;;1.63;1.52;;;;;;;;;;4828952;29;32116;-69
2021/11/20 03:46:54;;;;;;;2.67;1.52;;;;;;;;;;4829312;29;32290;-68
2021/11/20 03:49:21;;;;;;;2.65;1.48;;;;;;;;;;4829058;29;32316;-68
2021/11/20 03:51:47;;;;;;;1.95;1.45;;;;;;;;;;4829185;29;34579;-68
2021/11/20 03:54:16;;;;;;;1.58;1.15;;;;;;;;;;4829058;29;32252;-68
2021/11/20 03:56:42;;;;;;;1.92;1.48;;;;;;;;;;4828582;29;32273;-67
2021/11/20 03:59:09;;;;;;;1.65;1.50;;;;;;;;;;4828953;29;32383;-69
2021/11/20 04:01:36;;;;;;;1.45;1.35;;;;;;;;;;4827549;29;34107;-68
2021/11/20 04:04:04;;;;;;;1.85;1.55;;;;;;;;;;4828445;29;32329;-69
2021/11/20 04:06:31;;;;;;;2.03;1.67;;;;;;;;;;4828093;29;32288;-67
2021/11/20 04:08:57;;;;;;;1.65;1.40;;;;;;;;;;4829762;29;32198;-68
2021/11/20 04:11:27;;;;;;;3.72;1.83;;;;;;;;;;4831088;29;32255;-68
2021/11/20 04:13:54;;;;;;;2.08;1.63;;;;;;;;;;4831767;29;34448;-70
2021/11/20 04:16:24;;;;;;;2.80;1.85;;;;;;;;;;4831711;29;32360;-67
2021/11/20 04:18:52;;;;;;;2.47;1.65;;;;;;;;;;4831720;29;32306;-72
2021/11/20 04:21:20;;;;;;;2.10;1.58;;;;;;;;;;4831205;29;32287;-69
2021/11/20 04:23:47;;;;;;;2.30;1.98;;;;;;;;;;4830988;29;34781;-68
2021/11/20 04:26:16;;;;;;;1.92;1.40;;;;;;;;;;4827544;29;32424;-69
2021/11/20 04:28:44;;;;;;;3.15;2.40;;;;;;;;;;4830732;29;32128;-68
2021/11/20 04:31:12;;;;;;;2.50;1.83;;;;;;;;;;4830520;29;32343;-70
2021/11/20 04:33:39;;;;;;;2.65;1.88;;;;;;;;;;4830836;29;32264;-67
2021/11/20 04:36:06;;;;;;;2.40;1.73;;;;;;;;;;4831950;29;32428;-71
2021/11/20 04:38:33;;;;;;;2.78;1.88;;;;;;;;;;4831164;29;32257;-69
2021/11/20 04:41:00;;;;;;;2.35;1.67;;;;;;;;;;4830566;29;32213;-67
2021/11/20 04:43:26;;;;;;;2.63;2.00;;;;;;;;;;4830913;29;32327;-67
2021/11/20 04:45:55;;;;;;;2.45;1.67;;;;;;;;;;4828845;29;34084;-69
2021/11/20 04:48:22;;;;;;;2.58;1.83;;;;;;;;;;4831357;29;32256;-71
2021/11/20 04:50:51;;;;;;;3.65;1.88;;;;;;;;;;4831424;29;32142;-69
2021/11/20 04:53:19;;;;;;;4.03;1.95;;;;;;;;;;4831217;29;32199;-68
2021/11/20 04:55:47;;;;;;;2.28;2.05;;;;;;;;;;4831293;29;32217;-68
2021/11/20 04:58:13;;;;;;;2.97;1.83;;;;;;;;;;4831191;29;32452;-69
2021/11/20 05:00:43;;;;;;;3.15;2.00;;;;;;;;;;4831320;29;32284;-69
2021/11/20 05:03:11;;;;;;;2.67;1.98;;;;;;;;;;4830561;29;32431;-69
2021/11/20 05:05:42;;;;;;;2.75;2.03;;;;;;;;;;4830767;29;32352;-69
2021/11/20 05:08:09;;;;;;;2.60;1.92;;;;;;;;;;4830310;29;33879;-71
2021/11/20 05:10:38;;;;;;;2.25;1.88;;;;;;;;;;4830962;29;32680;-66
2021/11/20 05:13:06;;;;;;;2.65;2.17;;;;;;;;;;4830734;29;32253;-73
2021/11/20 05:15:34;;;;;;;;;;;;;;;;;;4831354;29;32392;-69
2021/11/20 05:18:01;;;;;;;2.35;1.90;;;;;;;;;;4830517;29;32237;-67
2021/11/20 05:20:29;;;;;;;3.60;1.83;;;;;;;;;;4830513;29;32308;-72
2021/11/20 05:22:56;;;;;;;3.70;2.38;;;;;;;;;;4827553;29;32767;-70
2021/11/20 05:25:23;;;;;;;2.63;1.98;;;;;;;;;;4832311;29;32598;-67
2021/11/20 05:27:53;;;;;;;3.70;2.30;;;;;;;;;;4818958;29;32420;-67
2021/11/20 05:30:27;;;;;;;3.90;2.45;;;;;;;;;;4829304;29;35128;-70
2021/11/20 05:32:55;;;;;;;2.88;2.30;;;;;;;;;;4828853;29;32423;-68
2021/11/20 05:35:23;;;;;;;3.83;3.50;;;;;;;;;;4827563;29;32656;-67
2021/11/20 05:37:52;;;;;;;3.40;2.47;;;;;;;;;;4827519;29;32312;-69
2021/11/20 05:40:19;;;;;;;3.42;2.55;;;;;;;;;;4828337;29;32125;-68
2021/11/20 05:42:49;;;;;;;2.97;2.10;;;;;;;;;;4828190;29;32556;-67
2021/11/20 05:45:19;;;;;;;4.13;2.90;;;;;;;;;;4828573;29;32800;-67
2021/11/20 05:47:45;;;;;;;3.00;2.03;;;;;;;;;;4828699;29;32403;-67
2021/11/20 05:50:13;;;;;;;2.97;2.60;;;;;;;;;;4828307;29;32319;-68
2021/11/20 05:52:39;;;;;;;3.20;2.55;;;;;;;;;;4827617;29;34053;-67
2021/11/20 05:55:08;;;;;;;3.85;2.75;;;;;;;;;;4828571;29;32333;-67
2021/11/20 05:57:35;;;;;;;3.10;2.17;;;;;;;;;;4827495;29;32288;-70
2021/11/20 06:00:04;;;;;;;3.15;2.30;;;;;;;;;;4827855;29;32383;-67
2021/11/20 06:02:31;;;;;;;3.17;2.63;;;;;;;;;;4827711;29;32288;-73
2021/11/20 06:04:57;;;;;;;3.92;2.85;;;;;;;;;;4824080;29;32448;-70
2021/11/20 06:07:24;;;;;;;3.58;2.20;;;;;;;;;;4827906;29;32134;-67
2021/11/20 06:09:50;;;;;;;4.63;2.80;;;;;;;;;;4827506;29;32749;-70
2021/11/20 06:12:18;;;;;;;5.18;3.38;;;;;;;;;;4827856;29;32230;-69
2021/11/20 06:14:45;;;;;;;4.85;2.40;;;;;;;;;;4828497;29;34976;-69
2021/11/20 06:17:11;;;;;;;4.20;2.53;;;;;;;;;;4827915;29;32174;-70
2021/11/20 06:19:38;;;;;;;3.90;2.83;;;;;;;;;;4826335;29;32371;-71
2021/11/20 06:22:05;;;;;;;4.43;2.38;;;;;;;;;;4810545;29;32230;-71
2021/11/20 06:24:31;;;;;;;3.40;2.75;;;;;;;;;;4828800;29;32519;-69
2021/11/20 06:26:58;;;;;;;4.45;3.05;;;;;;;;;;4827465;29;32242;-70
2021/11/20 06:29:26;;;;;;;4.15;2.70;;;;;;;;;;4827229;29;32379;-70
2021/11/20 06:31:52;;;;;;;4.70;2.72;;;;;;;;;;4826124;29;32403;-71
2021/11/20 06:34:20;;;;;;;4.18;2.85;;;;;;;;;;4826728;29;32410;-70
2021/11/20 06:36:47;;;;;;;4.40;2.88;;;;;;;;;;4825550;29;34668;-70
2021/11/20 06:39:14;;;;;;;;;;;;;;;;;;4827153;29;32400;-69
2021/11/20 06:41:41;;;;;;;3.42;2.50;;;;;;;;;;4827217;29;32293;-69
2021/11/20 06:44:08;;;;;;;4.03;2.97;;;;;;;;;;4828027;29;32356;-69
2021/11/20 06:46:36;;;;;;;3.72;2.83;;;;;;;;;;4827236;29;35456;-70
2021/11/20 06:49:05;;;;;;;5.40;3.13;;;;;;;;;;4828199;29;32326;-72
2021/11/20 06:51:31;;;;;;;3.53;2.92;;;;;;;;;;4826361;29;32366;-69
2021/11/20 06:53:58;;;;;;;4.20;3.13;;;;;;;;;;4826414;29;32337;-73
2021/11/20 06:56:28;;;;;;;4.80;3.08;;;;;;;;;;4828227;29;32203;-73
2021/11/20 06:59:09;;;;;;;4.45;2.75;;;;;;;;;;4825984;29;34008;-69
2021/11/20 07:01:37;;;;;;;4.90;3.53;;;;;;;;;;4826738;29;32283;-70
2021/11/20 07:04:11;;;;;;;5.15;3.42;;;;;;;;;;4826440;29;32209;-68
2021/11/20 07:06:42;;;;;;;5.40;3.60;;;;;;;;;;4827010;29;32491;-70
2021/11/20 07:09:09;;;;;;;5.55;3.38;;;;;;;;;;4827212;29;34104;-70
2021/11/20 07:11:36;;;;;;;4.70;3.45;;;;;;;;;;4827450;29;32386;-71
2021/11/20 07:14:03;;;;;;;5.93;4.13;;;;;;;;;;4827923;29;32236;-71
2021/11/20 07:16:30;;;;;;;6.60;3.88;;;;;;;;;;4807607;29;32990;-71
2021/11/20 07:18:59;;;;;;;8.60;4.90;;;;;;;;;;4825570;29;32417;-69
2021/11/20 07:21:28;;;;;;;6.13;4.30;;;;;;;;;;4822476;29;35451;-74
2021/11/20 07:23:57;;;;;;;6.30;4.15;;;;;;;;;;4808497;29;32535;-73
2021/11/20 07:26:25;;;;;;;6.32;3.83;;;;;;;;;;4825613;29;32365;-72
2021/11/20 07:28:52;;;;;;;6.47;4.28;;;;;;;;;;4824218;29;32627;-70
2021/11/20 07:31:19;;;;;;;5.45;3.58;;;;;;;;;;4821643;29;33982;-71
2021/11/20 07:33:45;;;;;;;6.30;4.35;;;;;;;;;;4826076;29;32743;-72
2021/11/20 07:36:15;;;;;;;5.90;4.18;;;;;;;;;;4825957;29;32488;-70
2021/11/20 07:38:45;;;;;;;5.63;4.05;;;;;;;;;;4822698;29;32310;-71
2021/11/20 07:41:12;;;;;;;5.65;4.20;;;;;;;;;;4826188;29;32293;-72
2021/11/20 07:43:39;;;;;;;6.53;3.63;;;;;;;;;;4825174;29;35380;-72
2021/11/20 07:46:08;;;;;;;7.63;4.13;;;;;;;;;;4828572;29;32163;-76
2021/11/20 07:48:37;;;;;;;7.38;3.88;;;;;;;;;;4828411;29;32210;-71
2021/11/20 07:51:05;;;;;;;7.90;4.50;;;;;;;;;;4828791;29;32442;-71
2021/11/20 07:53:33;;;;;;;5.60;3.78;;;;;;;;;;4828927;29;33974;-70
2021/11/20 07:56:00;;;;;;;7.57;4.55;;;;;;;;;;4828318;29;33484;-69
2021/11/20 07:58:27;;;;;;;6.93;5.35;;;;;;;;;;4828173;29;32343;-70
2021/11/20 08:00:53;;;;;;;;;;;;;;;;;;4828250;29;32335;-71
2021/11/20 08:03:20;;;;;;;;;;;;;;;;;;4829685;29;32345;-73
2021/11/20 08:05:47;;;;;;;;;;;;;;;;;;4825004;29;35287;-70
2021/11/20 08:08:13;;;;;;;7.07;4.47;;;;;;;;;;4826845;29;32635;-70
2021/11/20 08:10:42;;;;;;;7.53;4.85;;;;;;;;;;4826821;29;32159;-71
2021/11/20 08:13:09;;;;;;;9.20;5.22;;;;;;;;;;4828311;29;32311;-71
2021/11/20 08:15:37;;;;;;;7.35;4.82;;;;;;;;;;4828163;29;34999;-69
2021/11/20 08:18:05;;;;;;;9.35;5.93;;;;;;;;;;4827816;29;32228;-71
2021/11/20 08:20:36;;;;;;;8.65;6.07;;;;;;;;;;4827815;29;32340;-68
2021/11/20 08:23:03;;;;;;;10.75;5.72;;;;;;;;;;4827596;29;32466;-70
2021/11/20 08:25:30;;;;;;;9.63;5.85;;;;;;;;;;4827604;29;32233;-70
2021/11/20 08:27:59;;;;;;;7.53;5.65;;;;;;;;;;4828319;29;35035;-70
2021/11/20 08:30:28;;;;;;;10.40;5.38;;;;;;;;;;4828123;29;32274;-70
2021/11/20 08:32:56;;;;;;;9.52;5.97;;;;;;;;;;4826878;29;32366;-70
2021/11/20 08:35:23;;;;;;;7.85;5.20;;;;;;;;;;4828540;29;32069;-70
2021/11/20 08:37:50;;;;;;;9.68;6.10;;;;;;;;;;4827096;29;34505;-70
2021/11/20 08:40:20;;;;;;;9.38;5.70;;;;;;;;;;4809623;29;32396;-68
2021/11/20 08:42:47;;;;;;;10.65;6.10;;;;;;;;;;4821802;29;32583;-68
2021/11/20 08:45:18;;;;;;;9.60;6.25;;;;;;;;;;4826840;29;32276;-72
2021/11/20 08:47:46;;;;;;;12.25;6.55;;;;;;;;;;4824878;29;32692;-71
2021/11/20 08:50:17;;;;;;;11.63;6.70;;;;;;;;;;4827144;29;34098;-73
2021/11/20 08:52:43;;;;;;;10.50;6.05;;;;;;;;;;4826619;29;32079;-71
2021/11/20 08:55:11;;;;;;;8.95;5.78;;;;;;;;;;4829158;29;32342;-70
2021/11/20 08:57:38;;;;;;;8.63;6.13;;;;;;;;;;4830121;29;32371;-71
2021/11/20 09:00:11;;;;;;;9.10;5.93;;;;;;;;;;4830500;29;34530;-67
2021/11/20 09:02:45;;;;;;;10.13;6.45;;;;;;;;;;4830358;29;32659;-74
2021/11/20 09:05:17;;;;;;;11.25;7.07;;;;;;;;;;4831232;29;32197;-74
2021/11/20 09:07:47;;;;;;;11.82;6.05;;;;;;;;;;4830426;29;32252;-73
2021/11/20 09:10:23;;;;;;;12.20;7.28;;;;;;;;;;4829830;29;32358;-73
2021/11/20 09:12:57;;;;;;;10.60;6.40;;;;;;;;;;4727898;29;34482;-73
2021/11/20 09:15:30;;;;;;;10.85;6.50;;;;;;;;;;4828784;29;32407;-73
2021/11/20 09:17:58;;;;;;;;;;;;;;;;;;4828654;29;32302;-73
2021/11/20 09:20:25;;;;;;;11.23;7.03;;;;;;;;;;4830416;29;32193;-72
2021/11/20 09:22:52;;;;;;;12.20;7.25;;;;;;;;;;4830491;29;35515;-73
2021/11/20 09:25:20;;;;;;;;;;;;;;;;;;4830022;29;32352;-70
2021/11/20 09:27:48;;;;;;;11.70;7.28;;;;;;;;;;4829960;29;32229;-71
2021/11/20 09:30:19;;;;;;;16.20;8.07;;;;;;;;;;4831465;29;32252;-70
2021/11/20 09:32:45;;;;;;;13.65;8.57;;;;;;;;;;4827262;29;32207;-69
2021/11/20 09:35:14;;;;;;;13.95;7.65;;;;;;;;;;4829915;29;34519;-71
2021/11/20 09:37:41;;;;;;;12.60;7.82;;;;;;;;;;4829860;29;32342;-70
2021/11/20 09:40:10;;;;;;;15.90;8.80;;;;;;;;;;4829673;29;32235;-71
2021/11/20 09:42:41;;;;;;;14.13;8.10;;;;;;;;;;4823114;29;32140;-67
2021/11/20 09:45:12;;;;;;;11.60;7.93;;;;;;;;;;4830455;29;35118;-68
2021/11/20 09:47:45;;;;;;;15.52;8.88;;;;;;;;;;4829256;29;32414;-70
2021/11/20 09:50:19;;;;;;;14.65;8.48;;;;;;;;;;4823610;29;32351;-72
2021/11/20 09:52:48;;;;;;;17.95;10.13;;;;;;;;;;4825894;29;32239;-69
2021/11/20 09:55:18;;;;;;;16.95;9.95;;;;;;;;;;4826412;29;32398;-71
2021/11/20 09:57:49;;;;;;;17.40;9.40;;;;;;;;;;4812395;29;36485;-70
2021/11/20 10:01:06;;;;;;;18.35;10.43;;;;;;;;;;4827932;29;32207;-71
2021/11/20 10:03:49;;;;;;;17.73;9.75;;;;;;;;;;4825736;29;32183;-73
2021/11/20 10:06:27;;;;;;;17.60;10.15;;;;;;;;;;4829031;29;32121;-71
2021/11/20 10:09:11;;;;;;;17.13;10.80;;;;;;;;;;4829248;29;35378;-73
2021/11/20 10:11:50;;;;;;;19.75;10.50;;;;;;;;;;4829402;29;32392;-70
2021/11/20 10:14:20;;;;;;;19.55;10.75;;;;;;;;;;4828646;29;32278;-72
2021/11/20 10:16:50;;;;;;;16.63;10.88;;;;;;;;;;4828323;29;32245;-71
2021/11/20 10:19:21;;;;;;;17.50;9.35;;;;;;;;;;4829947;29;32281;-70
2021/11/20 10:22:18;;;;;;;15.95;9.93;;;;;;;;;;4829101;29;34394;-73
2021/11/20 10:25:04;;;;;;;15.77;9.50;;;;;;;;;;4828513;29;32306;-72
2021/11/20 10:27:58;;;;;;;14.25;8.85;;;;;;;;;;4835027;29;32206;-73
2021/11/20 10:30:37;;;;;;;15.45;9.50;;;;;;;;;;4838077;29;32174;-72
2021/11/20 10:33:11;;;;;;;14.25;8.95;;;;;;;;;;4834040;29;34667;-71
2021/11/20 10:35:44;;;;;;;18.40;9.50;;;;;;;;;;4829292;29;32028;-70
2021/11/20 10:38:23;;;;;;;14.20;9.20;;;;;;;;;;4827230;29;32377;-69
2021/11/20 10:41:08;;;;;;;16.95;9.15;;;;;;;;;;4824183;29;32182;-72
2021/11/20 10:43:46;;;;;;;18.85;9.18;;;;;;;;;;4828325;29;32274;-71
2021/11/20 10:46:27;;;;;;;15.43;8.90;;;;;;;;;;4827094;29;34623;-72
2021/11/20 10:49:40;;;;;;;14.57;8.80;;;;;;;;;;4828330;29;32257;-73
2021/11/20 10:52:10;;;;;;;17.15;10.13;;;;;;;;;;4817866;29;32483;-69
2021/11/20 10:55:10;;;;;;;17.80;9.13;;;;;;;;;;4824615;29;32313;-70
2021/11/20 10:58:16;;;;;;;15.00;9.10;;;;;;;;;;4822474;29;34178;-71
2021/11/20 11:01:11;;;;;;;16.88;9.30;;;;;;;;;;4822654;29;32323;-69
2021/11/20 11:03:42;;;;;;;16.70;9.07;;;;;;;;;;4822471;29;32380;-69
2021/11/20 11:06:56;;;;;;;15.75;8.90;;;;;;;;;;4823626;29;32381;-69
2021/11/20 11:09:33;;;;;;;13.88;8.55;;;;;;;;;;4823976;29;32315;-70
2021/11/20 11:12:09;;;;;;;16.50;8.63;;;;;;;;;;4832926;29;34092;-68
2021/11/20 11:14:59;;;;;;;16.92;9.07;;;;;;;;;;4825967;29;32648;-68
2021/11/20 11:17:41;;;;;;;14.60;8.35;;;;;;;;;;4821304;29;32479;-73
2021/11/20 11:20:14;;;;;;;14.65;8.85;;;;;;;;;;4824692;29;32279;-69
2021/11/20 11:22:46;;;;;;;17.52;8.82;;;;;;;;;;4824888;29;35412;-68
2021/11/20 11:25:21;;;;;;;15.82;9.05;;;;;;;;;;4826758;29;32329;-69
2021/11/20 11:28:08;;;;;;;18.45;9.45;;;;;;;;;;4824995;29;32800;-68
2021/11/20 11:30:45;;;;;;;15.63;8.75;;;;;;;;;;4824338;29;33219;-68
2021/11/20 11:33:16;;;;;;;17.88;10.02;;;;;;;;;;4826562;29;32245;-68
2021/11/20 11:35:48;;;;;;;17.30;9.43;;;;;;;;;;4824678;29;34254;-69
2021/11/20 11:38:35;;;;;;;17.67;9.38;;;;;;;;;;4824117;29;32277;-70
2021/11/20 11:41:12;;;;;;;15.52;9.40;;;;;;;;;;4819498;29;32451;-69
2021/11/20 11:43:47;;;;;;;17.30;9.32;;;;;;;;;;4828595;29;32302;-68
2021/11/20 11:46:33;;;;;;;17.15;9.13;;;;;;;;;;4822929;29;34738;-68
2021/11/20 11:49:34;;;;;;;16.90;9.07;;;;;;;;;;4824747;29;32255;-67
2021/11/20 11:52:39;;;;;;;16.40;9.27;;;;;;;;;;4825038;29;32183;-69
2021/11/20 11:55:34;;;;;;;11.55;6.25;;;;;;;;;;4810201;29;32582;-70
2021/11/20 11:58:17;;;;;;;14.68;8.52;;;;;;;;;;4818810;29;32300;-69
2021/11/20 12:01:01;;;;;;;16.00;8.90;;;;;;;;;;4814735;29;34288;-73
2021/11/20 12:03:31;;;;;;;17.10;9.32;;;;;;;;;;4822447;29;32301;-69
2021/11/20 12:06:35;;;;;;;13.13;5.80;;;;;;;;;;4818244;29;32387;-70
2021/11/20 12:09:07;;;;;;;13.85;7.88;;;;;;;;;;4814047;29;32289;-69
2021/11/20 12:11:37;;;;;;;16.42;8.15;;;;;;;;;;4821378;29;35178;-70
2021/11/20 12:14:16;;;;;;;15.02;8.30;;;;;;;;;;4821025;29;32496;-72
2021/11/20 12:16:57;;;;;;;14.93;9.02;;;;;;;;;;4824596;29;32325;-72
2021/11/20 12:19:35;;;;;;;15.07;8.45;;;;;;;;;;4822062;29;32366;-71
2021/11/20 12:22:16;;;;;;;16.25;8.95;;;;;;;;;;4821690;29;32414;-71
2021/11/20 12:24:48;;;;;;;15.35;8.40;;;;;;;;;;4823706;29;33942;-73
2021/11/20 12:27:36;;;;;;;15.40;8.82;;;;;;;;;;4824569;29;32480;-73
2021/11/20 12:30:28;;;;;;;16.55;8.68;;;;;;;;;;4809744;29;32221;-74
2021/11/20 12:33:17;;;;;;;14.90;8.50;;;;;;;;;;4822551;29;32415;-73
2021/11/20 12:36:16;;;;;;;18.17;9.23;;;;;;;;;;4826391;29;33976;-72
2021/11/20 12:39:07;;;;;;;16.45;8.93;;;;;;;;;;4816988;29;32497;-71
2021/11/20 12:42:00;;;;;;;15.30;8.20;;;;;;;;;;4805051;29;32212;-71
2021/11/20 12:44:38;;;;;;;;;;;;;;;;;;4808154;29;32367;-73
2021/11/20 12:47:33;;;;;;;15.90;8.18;;;;;;;;;;4824857;29;32427;-71
2021/11/20 12:50:09;;;;;;;14.52;8.60;;;;;;;;;;4793138;29;34945;-72
2021/11/20 12:52:51;;;;;;;14.00;8.10;;;;;;;;;;4823984;29;33003;-71
2021/11/20 12:55:36;;;;;;;12.95;8.20;;;;;;;;;;4825112;29;32592;-74
2021/11/20 12:58:13;;;;;;;13.02;7.82;;;;;;;;;;4825561;29;32334;-74
2021/11/20 13:00:49;;;;;;;14.25;8.48;;;;;;;;;;4823707;29;35193;-73
2021/11/20 13:03:36;;;;;;;12.70;7.18;;;;;;;;;;4818735;29;32434;-75
2021/11/20 13:06:10;;;;;;;12.77;7.50;;;;;;;;;;4824570;29;32274;-73
2021/11/20 13:08:40;;;;;;;13.70;8.00;;;;;;;;;;4825010;29;32646;-72
2021/11/20 13:11:09;;;;;;;12.43;7.82;;;;;;;;;;4822011;29;32318;-73
2021/11/20 13:13:44;;;;;;;12.73;7.22;;;;;;;;;;4825193;29;35181;-78
2021/11/20 13:16:43;;;;;;;12.05;7.82;;;;;;;;;;4825271;29;32377;-74
2021/11/20 13:19:20;;;;;;;11.98;7.35;;;;;;;;;;4825532;29;32733;-73
2021/11/20 13:22:13;;;;;;;12.82;7.25;;;;;;;;;;4826715;29;32216;-74
2021/11/20 13:24:51;;;;;;;11.70;6.93;;;;;;;;;;4827206;29;34019;-73
2021/11/20 13:27:58;;;;;;;13.15;8.00;;;;;;;;;;4825618;29;32223;-73
2021/11/20 13:30:30;;;;;;;13.18;7.82;;;;;;;;;;4825777;29;32552;-73
2021/11/20 13:33:02;;;;;;;11.40;7.18;;;;;;;;;;4824686;29;32266;-74
2021/11/20 13:35:31;;;;;;;13.25;6.75;;;;;;;;;;4823864;29;32712;-74
2021/11/20 13:38:02;;;;;;;12.60;7.03;;;;;;;;;;4824601;29;33931;-72
2021/11/20 13:40:31;;;;;;;12.13;7.72;;;;;;;;;;4821373;29;32379;-70
2021/11/20 13:42:59;;;;;;;13.80;7.32;;;;;;;;;;4823427;29;32333;-76
2021/11/20 13:45:27;;;;;;;16.65;7.82;;;;;;;;;;4825473;29;32322;-72
2021/11/20 13:47:54;;;;;;;15.45;7.53;;;;;;;;;;4826519;29;34438;-75
2021/11/20 13:50:21;;;;;;;14.32;8.30;;;;;;;;;;4825722;29;32303;-74
2021/11/20 13:52:49;;;;;;;11.85;8.00;;;;;;;;;;4825592;29;32380;-73
2021/11/20 13:55:18;;;;;;;14.63;7.72;;;;;;;;;;4827343;29;32456;-78
2021/11/20 13:57:48;;;;;;;14.90;7.70;;;;;;;;;;4826056;29;32374;-73
2021/11/20 14:00:19;;;;;;;14.90;8.10;;;;;;;;;;4809727;29;34432;-75
2021/11/20 14:02:49;;;;;;;12.23;8.13;;;;;;;;;;4824780;29;32421;-73
2021/11/20 14:05:16;;;;;;;12.10;7.15;;;;;;;;;;4823304;29;32479;-75
2021/11/20 14:07:44;;;;;;;10.25;6.78;;;;;;;;;;4825371;29;32815;-76
2021/11/20 14:10:13;;;;;;;;;;;;;;;;;;4827483;29;34586;-76
2021/11/20 14:12:53;;;;;;;12.88;8.70;;;;;;;;;;4825888;29;32323;-79
2021/11/20 14:15:21;;;;;;;11.80;7.32;;;;;;;;;;4828890;29;32405;-79
2021/11/20 14:17:49;;;;;;;12.30;7.95;;;;;;;;;;4828080;29;32089;-77
2021/11/20 14:20:17;;;;;;;11.27;7.03;;;;;;;;;;4829140;29;32011;-79
2021/11/20 14:22:46;;;;;;;12.35;7.35;;;;;;;;;;4819944;29;33912;-76
2021/11/20 14:25:22;;;;;;;10.85;6.57;;;;;;;;;;4827175;29;32454;-75
2021/11/20 14:27:57;;;;;;;12.88;7.38;;;;;;;;;;4829297;29;32260;-77
2021/11/20 14:30:26;;;;;;;10.63;7.03;;;;;;;;;;4822223;29;32575;-74
2021/11/20 14:33:05;;;;;;;11.07;7.22;;;;;;;;;;4827685;29;34571;-78
2021/11/20 14:35:32;;;;;;;10.65;7.22;;;;;;;;;;4820815;29;32411;-77
2021/11/20 14:37:59;;;;;;;12.63;7.20;;;;;;;;;;4828820;29;32345;-75
2021/11/20 14:40:26;;;;;;;;;;;;;;;;;;4824719;29;32257;-76
2021/11/20 14:42:53;;;;;;;12.43;7.05;;;;;;;;;;4829223;29;32191;-79
2021/11/20 14:45:21;;;;;;;10.88;6.53;;;;;;;;;;4821686;29;35090;-77
2021/11/20 14:47:52;;;;;;;10.13;6.28;;;;;;;;;;4825486;29;32394;-72
2021/11/20 14:50:22;;;;;;;11.40;7.00;;;;;;;;;;4826038;29;32685;-74
2021/11/20 14:52:59;;;;;;;12.13;7.15;;;;;;;;;;4824688;29;32238;-73
2021/11/20 14:55:33;;;;;;;10.60;6.97;;;;;;;;;;4823668;29;35650;-75
2021/11/20 14:57:59;;;;;;;9.77;6.35;;;;;;;;;;4827223;29;32873;-72
2021/11/20 15:00:26;;;;;;;9.68;6.40;;;;;;;;;;4828646;29;32234;-72
2021/11/20 15:02:54;;;;;;;10.52;6.45;;;;;;;;;;4828193;29;32351;-73
2021/11/20 15:05:22;;;;;;;8.98;5.93;;;;;;;;;;4828264;29;32107;-75
2021/11/20 15:07:49;;;;;;;9.93;6.97;;;;;;;;;;4829709;29;34226;-73
2021/11/20 15:10:16;;;;;;;9.00;5.75;;;;;;;;;;4828231;29;32234;-73
2021/11/20 15:12:43;;;;;;;11.30;6.70;;;;;;;;;;4827425;29;32253;-75